Time;durP1;ratioP1;P1;durP2;ratioP2;P2;SDS_P1;SDS_P2;PMS_P1;PMS_P2;Temp;Humidity;BMP_temperature;BMP_pressure;BME280_temperature;BME280_humidity;BME280_pressure;Samples;Min_cycle;Max_cycle;Signal;HPM_P1;HPM_P2
2021/03/04 00:00:18;;;;;;;136.52;64.22;;;;;;;1.08;78.03;98546.30;1780728;79;21162;-71
2021/03/04 00:02:46;;;;;;;159.63;74.65;;;;;;;1.01;78.09;98540.13;1762192;81;21119;-71
2021/03/04 00:05:13;;;;;;;116.97;55.58;;;;;;;0.98;77.18;98533.88;1749879;81;21023;-71
2021/03/04 00:07:39;;;;;;;127.47;61.05;;;;;;;0.94;76.54;98521.98;1749811;82;21207;-71
2021/03/04 00:10:12;;;;;;;128.18;63.08;;;;;;;0.85;77.30;98525.86;1780686;79;21114;-71
2021/03/04 00:12:39;;;;;;;124.33;60.28;;;;;;;0.80;77.30;98525.67;1780700;80;21079;-71
2021/03/04 00:15:07;;;;;;;153.75;73.95;;;;;;;0.76;78.37;98522.57;1780814;79;21134;-71
2021/03/04 00:17:33;;;;;;;139.12;66.95;;;;;;;0.74;78.30;98524.63;1762173;81;21069;-72
2021/03/04 00:20:00;;;;;;;137.50;68.72;;;;;;;0.68;79.42;98524.10;1780799;79;22126;-71
2021/03/04 00:22:26;;;;;;;149.60;68.72;;;;;;;0.64;77.07;98524.73;1731931;82;21135;-71
2021/03/04 00:24:52;;;;;;;122.13;56.40;;;;;;;0.57;79.34;98522.05;1780828;79;21031;-71
2021/03/04 00:27:18;;;;;;;139.00;60.38;;;;;;;0.51;79.61;98514.85;1731960;82;21107;-71
2021/03/04 00:29:44;;;;;;;145.50;67.37;;;;;;;0.47;78.32;98521.12;1780847;79;21019;-71
2021/03/04 00:32:10;;;;;;;214.80;94.00;;;;;;;0.44;78.96;98518.87;1732854;82;21310;-71
2021/03/04 00:34:36;;;;;;;189.93;83.70;;;;;;;0.39;78.86;98519.16;1788727;78;21106;-71
2021/03/04 00:37:02;;;;;;;142.72;63.48;;;;;;;0.35;77.61;98520.59;1788755;80;21189;-71
2021/03/04 00:39:29;;;;;;;118.47;52.43;;;;;;;0.26;76.97;98518.11;1788748;78;21483;-71
2021/03/04 00:41:55;;;;;;;96.02;48.35;;;;;;;0.24;79.59;98521.98;1788921;80;21502;-71
2021/03/04 00:44:21;;;;;;;124.82;61.45;;;;;;;0.25;77.63;98521.77;1788826;78;21961;-71
2021/03/04 00:46:47;;;;;;;100.62;48.70;;;;;;;0.23;78.63;98513.16;1788693;80;21121;-71
2021/03/04 00:49:13;;;;;;;104.12;48.10;;;;;;;0.19;78.20;98505.28;1788813;78;21047;-71
2021/03/04 00:51:39;;;;;;;102.32;47.75;;;;;;;0.20;77.93;98511.42;1788737;80;21111;-71
2021/03/04 00:54:07;;;;;;;94.40;48.38;;;;;;;0.25;77.80;98500.96;1788841;78;21129;-71
2021/03/04 00:56:34;;;;;;;86.67;41.68;;;;;;;0.27;77.88;98500.27;1788822;80;22148;-71
2021/03/04 00:59:01;;;;;;;83.72;38.05;;;;;;;0.29;78.05;98499.55;1788668;78;21099;-71
2021/03/04 01:01:27;;;;;;;92.35;43.13;;;;;;;0.26;77.09;98497.30;1788796;80;21130;-71
2021/03/04 01:03:53;;;;;;;110.85;54.70;;;;;;;0.18;76.75;98500.16;1788816;78;21019;-71
2021/03/04 01:06:19;;;;;;;105.97;51.77;;;;;;;0.20;79.00;98487.44;1788873;80;21122;-71
2021/03/04 01:08:47;;;;;;;97.95;47.05;;;;;;;0.23;77.64;98490.51;1788692;78;21198;-71
2021/03/04 01:11:15;;;;;;;89.40;44.77;;;;;;;0.24;78.34;98482.81;1789032;80;21078;-71
2021/03/04 01:13:42;;;;;;;94.83;46.58;;;;;;;0.23;79.04;98481.69;1788790;78;21499;-71
2021/03/04 01:16:08;;;;;;;84.50;39.90;;;;;;;0.23;77.62;98475.03;1788766;80;21090;-71
2021/03/04 01:18:35;;;;;;;74.58;36.93;;;;;;;0.21;78.49;98471.23;1788727;78;21317;-71
2021/03/04 01:21:03;;;;;;;79.50;38.55;;;;;;;0.19;78.25;98467.14;1788847;80;21205;-71
2021/03/04 01:23:29;;;;;;;83.85;41.25;;;;;;;0.10;78.73;98461.18;1788624;78;21556;-71
2021/03/04 01:25:55;;;;;;;67.35;35.60;;;;;;;0.05;78.03;98460.13;1788870;80;21546;-71
2021/03/04 01:28:21;;;;;;;78.50;39.50;;;;;;;0.01;77.09;98456.23;1788744;78;21030;-71
2021/03/04 01:30:48;;;;;;;72.95;38.40;;;;;;;-0.06;79.41;98446.37;1788748;80;21098;-71
2021/03/04 01:33:14;;;;;;;76.92;36.00;;;;;;;-0.04;78.81;98450.17;1786791;80;21064;-71
2021/03/04 01:35:40;;;;;;;72.53;35.17;;;;;;;-0.06;78.46;98440.23;1785044;79;21530;-71
2021/03/04 01:38:06;;;;;;;67.32;32.23;;;;;;;-0.05;78.68;98441.88;1785198;80;21118;-71
2021/03/04 01:40:32;;;;;;;78.52;37.23;;;;;;;-0.04;78.35;98433.67;1785222;79;21023;-71
2021/03/04 01:42:58;;;;;;;77.70;35.43;;;;;;;-0.04;78.02;98428.85;1785233;80;21133;-71
2021/03/04 01:45:24;;;;;;;66.70;34.20;;;;;;;-0.03;77.76;98432.64;1785112;79;21190;-71
2021/03/04 01:47:53;;;;;;;68.65;32.20;;;;;;;-0.06;80.44;98428.24;1785116;80;21436;-71
2021/03/04 01:50:20;;;;;;;;;;;;;;;-0.11;78.68;98422.69;1787351;79;21495;-71
2021/03/04 01:52:46;;;;;;;61.88;28.35;;;;;;;-0.18;80.42;98420.52;1785304;80;20677;-72
2021/03/04 01:55:15;;;;;;;68.72;32.78;;;;;;;-0.19;78.32;98420.20;1785372;79;21006;-71
2021/03/04 01:57:41;;;;;;;58.23;29.35;;;;;;;-0.18;80.02;98416.52;1785544;80;21263;-72
2021/03/04 02:00:09;;;;;;;59.42;25.80;;;;;;;-0.17;79.61;98414.16;1785318;79;21070;-72
2021/03/04 02:02:36;;;;;;;56.28;29.42;;;;;;;-0.15;78.97;98408.14;1785412;80;21023;-72
2021/03/04 02:05:07;;;;;;;51.28;29.07;;;;;;;-0.12;78.29;98407.73;1785284;79;21015;-72
2021/03/04 02:08:08;;;;;;;56.05;27.82;;;;;;;-0.12;79.01;98405.88;1784483;80;21020;-72
2021/03/04 02:10:48;;;;;;;65.25;32.13;;;;;;;-0.13;78.61;98402.09;1785291;79;21324;-71
2021/03/04 02:13:43;;;;;;;52.13;28.92;;;;;;;-0.20;81.30;98396.74;1785183;80;21090;-71
2021/03/04 02:16:14;;;;;;;55.65;28.80;;;;;;;-0.19;81.03;98393.56;1785326;80;21067;-71
2021/03/04 02:18:43;;;;;;;61.73;29.32;;;;;;;-0.18;79.89;98385.87;1785350;79;21587;-72
2021/03/04 02:21:18;;;;;;;54.80;27.85;;;;;;;-0.18;79.10;98387.22;1785394;80;21471;-72
2021/03/04 02:23:49;;;;;;;59.60;28.42;;;;;;;-0.15;78.99;98384.98;1785250;79;21187;-71
2021/03/04 02:26:43;;;;;;;51.80;27.17;;;;;;;-0.17;78.67;98379.53;1785322;80;21127;-72
2021/03/04 02:29:16;;;;;;;55.83;28.75;;;;;;;-0.23;80.33;98380.36;1785301;79;21424;-71
2021/03/04 02:31:43;;;;;;;57.20;27.60;;;;;;;-0.22;81.22;98374.00;1785147;80;21503;-72
2021/03/04 02:34:09;;;;;;;57.90;27.15;;;;;;;-0.19;81.15;98378.92;1756791;80;21467;-72
2021/03/04 02:36:36;;;;;;;53.52;24.70;;;;;;;-0.20;79.09;98375.44;1785296;80;21206;-72
2021/03/04 02:39:06;;;;;;;53.38;27.95;;;;;;;-0.20;79.12;98371.95;1785247;79;21031;-72
2021/03/04 02:41:33;;;;;;;64.62;31.50;;;;;;;-0.30;79.66;98365.17;1785248;80;21087;-72
2021/03/04 02:44:04;;;;;;;61.55;30.35;;;;;;;-0.38;82.61;98359.22;1785193;79;21470;-70
2021/03/04 02:46:32;;;;;;;63.20;30.97;;;;;;;-0.33;81.84;98358.11;1784322;80;21098;-71
2021/03/04 02:48:58;;;;;;;55.50;28.73;;;;;;;-0.28;80.32;98350.31;1784912;79;22132;-71
2021/03/04 02:51:25;;;;;;;64.58;30.97;;;;;;;-0.27;81.31;98357.80;1785145;80;21170;-72
2021/03/04 02:53:51;;;;;;;55.92;26.97;;;;;;;-0.26;81.81;98358.10;1785320;79;21054;-71
2021/03/04 02:56:17;;;;;;;59.25;31.05;;;;;;;-0.26;80.03;98351.44;1785348;80;21134;-71
2021/03/04 02:58:45;;;;;;;73.45;32.05;;;;;;;-0.30;80.94;98343.87;1785224;79;21027;-71
2021/03/04 03:01:12;;;;;;;96.92;42.60;;;;;;;-0.30;81.94;98352.38;1785318;80;21203;-71
2021/03/04 03:03:39;;;;;;;111.60;46.33;;;;;;;-0.36;82.37;98339.86;1757103;79;21178;-71
2021/03/04 03:06:05;;;;;;;96.82;40.92;;;;;;;-0.38;83.06;98337.91;1785265;80;21138;-72
2021/03/04 03:08:31;;;;;;;73.90;33.92;;;;;;;-0.36;82.18;98335.86;1785185;79;21522;-71
2021/03/04 03:10:57;;;;;;;62.33;29.37;;;;;;;-0.35;82.53;98334.84;1785378;80;21530;-71
2021/03/04 03:13:23;;;;;;;54.83;27.13;;;;;;;-0.35;82.61;98333.50;1785131;79;21392;-71
2021/03/04 03:15:52;;;;;;;52.58;27.70;;;;;;;-0.35;83.17;98330.84;1785195;80;21112;-71
2021/03/04 03:18:18;;;;;;;65.15;27.85;;;;;;;-0.25;82.65;98326.48;1785296;79;21084;-72
2021/03/04 03:20:44;;;;;;;54.03;26.68;;;;;;;-0.16;82.88;98322.08;1785243;80;21558;-72
2021/03/04 03:23:11;;;;;;;33.95;17.15;;;;;;;-0.13;81.48;98315.00;1785198;80;21014;-72
2021/03/04 03:29:26;;;;;;;53.95;21.73;;;;;;;0.18;81.61;98308.25;1785291;79;21404;-71
2021/03/04 03:31:53;;;;;;;52.48;23.07;;;;;;;0.41;80.37;98310.47;1785294;80;21050;-71
2021/03/04 03:34:20;;;;;;;60.28;27.85;;;;;;;0.80;80.02;98310.91;1782076;79;21051;-71
2021/03/04 03:36:46;;;;;;;47.05;23.00;;;;;;;1.18;80.23;98304.28;1780908;80;21087;-71
2021/03/04 03:39:13;;;;;;;45.58;19.87;;;;;;;1.51;79.77;98308.63;1780821;79;21152;-71
2021/03/04 03:41:40;;;;;;;60.10;25.70;;;;;;;1.77;79.11;98300.45;1780754;80;21126;-71
2021/03/04 03:44:07;;;;;;;52.00;25.57;;;;;;;1.93;78.68;98295.91;1780728;79;21111;-71
2021/03/04 03:46:34;;;;;;;43.05;21.80;;;;;;;2.08;78.11;98300.13;1780761;80;21099;-71
2021/03/04 03:49:05;;;;;;;55.12;24.10;;;;;;;2.17;77.53;98294.28;1756675;80;21063;-71
2021/03/04 03:51:33;;;;;;;46.42;24.25;;;;;;;2.25;77.12;98307.38;1779833;80;21399;-71
2021/03/04 03:54:00;;;;;;;43.37;20.10;;;;;;;2.28;76.81;98301.28;1780977;79;21061;-71
2021/03/04 03:56:27;;;;;;;49.35;24.95;;;;;;;2.33;76.34;98298.27;1780867;80;21503;-71
2021/03/04 03:58:53;;;;;;;54.55;26.65;;;;;;;2.26;76.42;98296.98;1780732;79;21019;-71
2021/03/04 04:01:19;;;;;;;29.23;15.20;;;;;;;2.25;76.05;98287.32;1780832;80;21083;-71
2021/03/04 04:03:45;;;;;;;49.53;24.32;;;;;;;2.25;75.93;98292.67;1731960;81;21255;-71
2021/03/04 04:06:12;;;;;;;40.70;17.37;;;;;;;2.23;75.87;98292.59;1780654;80;21134;-71
2021/03/04 04:08:38;;;;;;;35.20;15.80;;;;;;;2.26;76.04;98287.62;1731958;81;21631;-71
2021/03/04 04:11:04;;;;;;;25.35;13.58;;;;;;;2.30;75.59;98289.32;1780730;80;21126;-71
2021/03/04 04:13:30;;;;;;;54.27;24.05;;;;;;;2.27;75.39;98283.09;1731878;81;21077;-71
2021/03/04 04:15:56;;;;;;;29.55;13.90;;;;;;;2.24;75.21;98287.55;1780752;80;22000;-71
2021/03/04 04:18:22;;;;;;;26.77;13.55;;;;;;;2.22;75.36;98274.41;1731859;81;21061;-71
2021/03/04 04:20:49;;;;;;;28.32;15.10;;;;;;;2.23;75.50;98274.70;1780769;80;21106;-71
2021/03/04 04:23:15;;;;;;;52.45;25.35;;;;;;;2.22;75.39;98274.41;1762236;81;21512;-71
2021/03/04 04:25:52;;;;;;;38.98;21.57;;;;;;;2.21;75.65;98275.94;1756472;80;21115;-71
2021/03/04 04:28:19;;;;;;;48.30;23.15;;;;;;;2.25;75.67;98266.45;1762120;81;21196;-72
2021/03/04 04:30:45;;;;;;;43.90;17.07;;;;;;;2.23;75.57;98270.69;1780703;80;21105;-72
2021/03/04 04:33:12;;;;;;;45.90;23.85;;;;;;;2.23;75.52;98264.00;1781086;80;21150;-72
2021/03/04 04:35:38;;;;;;;52.90;27.55;;;;;;;2.21;75.47;98262.05;1785178;79;21138;-72
2021/03/04 04:38:04;;;;;;;46.95;25.55;;;;;;;2.19;75.73;98263.31;1785240;80;21114;-72
2021/03/04 04:40:30;;;;;;;57.23;26.25;;;;;;;2.25;75.48;98263.25;1785228;79;22020;-72
2021/03/04 04:42:56;;;;;;;49.98;23.77;;;;;;;2.20;75.29;98258.26;1785123;80;21110;-72
2021/03/04 04:45:23;;;;;;;44.10;22.73;;;;;;;2.16;75.28;98252.55;1785176;79;21047;-72
2021/03/04 04:47:49;;;;;;;45.00;20.95;;;;;;;2.18;75.37;98254.99;1785265;80;21149;-72
2021/03/04 04:50:15;;;;;;;55.33;25.90;;;;;;;2.23;74.98;98252.48;1785209;79;21514;-72
2021/03/04 04:52:41;;;;;;;51.73;26.73;;;;;;;2.17;75.15;98250.17;1785136;80;21194;-72
2021/03/04 04:55:08;;;;;;;53.17;23.40;;;;;;;2.16;75.23;98241.03;1785071;79;21500;-72
2021/03/04 04:57:34;;;;;;;57.17;23.95;;;;;;;2.14;75.28;98238.59;1785272;80;21054;-72
2021/03/04 05:00:01;;;;;;;56.05;22.93;;;;;;;2.16;75.39;98243.19;1785177;79;21095;-72
2021/03/04 05:02:27;;;;;;;107.55;43.92;;;;;;;2.16;75.39;98229.00;1785187;80;21086;-72
2021/03/04 05:04:53;;;;;;;88.40;43.10;;;;;;;2.17;75.51;98230.64;1785199;79;21197;-72
2021/03/04 05:07:20;;;;;;;98.50;43.25;;;;;;;2.16;75.52;98222.31;1785056;80;21193;-72
2021/03/04 05:09:46;;;;;;;79.90;32.03;;;;;;;2.13;75.48;98224.08;1785107;79;21448;-72
2021/03/04 05:12:12;;;;;;;68.12;30.00;;;;;;;2.18;76.01;98213.55;1785181;80;21550;-72
2021/03/04 05:14:38;;;;;;;67.55;32.50;;;;;;;2.33;75.76;98211.86;1785137;79;21092;-72
2021/03/04 05:17:05;;;;;;;64.67;29.65;;;;;;;2.37;75.74;98203.68;1785157;80;21197;-72
2021/03/04 05:19:31;;;;;;;68.55;30.05;;;;;;;2.38;75.84;98203.97;1785106;79;21027;-72
2021/03/04 05:21:57;;;;;;;53.38;24.60;;;;;;;2.44;75.62;98199.90;1785165;80;21110;-72
2021/03/04 05:24:24;;;;;;;76.77;33.35;;;;;;;2.59;75.79;98200.05;1785164;79;21419;-72
2021/03/04 05:26:50;;;;;;;59.95;27.52;;;;;;;2.68;75.52;98202.72;1785147;80;21138;-72
2021/03/04 05:29:17;;;;;;;55.03;27.82;;;;;;;2.75;75.19;98196.77;1785052;79;21259;-72
2021/03/04 05:31:43;;;;;;;75.37;37.45;;;;;;;2.78;74.98;98193.11;1785126;80;21551;-72
2021/03/04 05:34:09;;;;;;;64.92;33.65;;;;;;;2.78;74.84;98192.30;1784989;79;21123;-72
2021/03/04 05:36:35;;;;;;;54.05;29.30;;;;;;;2.76;74.69;98187.70;1785165;80;21555;-72
2021/03/04 05:39:02;;;;;;;45.58;26.17;;;;;;;2.73;74.53;98190.80;1785098;79;21015;-72
2021/03/04 05:41:28;;;;;;;44.38;24.72;;;;;;;2.70;74.43;98192.08;1785134;80;21198;-72
2021/03/04 05:43:54;;;;;;;54.45;28.67;;;;;;;2.67;74.54;98190.39;1715284;80;21035;-72
2021/03/04 05:46:21;;;;;;;46.88;20.70;;;;;;;2.60;74.33;98182.44;1785197;80;21146;-72
2021/03/04 05:48:49;;;;;;;57.85;30.82;;;;;;;2.58;74.31;98179.17;1785099;79;21157;-72
2021/03/04 05:51:25;;;;;;;70.75;34.20;;;;;;;2.49;74.09;98187.20;1785221;80;21121;-72
2021/03/04 05:53:57;;;;;;;57.73;30.05;;;;;;;2.40;74.34;98184.02;1785071;79;21199;-71
2021/03/04 05:56:23;;;;;;;58.60;28.00;;;;;;;2.38;74.24;98178.05;1784685;80;21099;-72
2021/03/04 05:58:50;;;;;;;55.92;24.92;;;;;;;2.38;74.44;98181.23;1785193;79;21053;-72
2021/03/04 06:01:16;;;;;;;56.63;30.25;;;;;;;2.45;74.48;98181.47;1785143;80;21086;-72
2021/03/04 06:03:44;;;;;;;69.58;25.12;;;;;;;2.48;74.63;98178.89;1785097;79;21000;-72
2021/03/04 06:06:10;;;;;;;55.85;30.32;;;;;;;2.60;74.68;98182.44;1785116;80;21191;-72
2021/03/04 06:08:36;;;;;;;56.02;27.20;;;;;;;2.70;74.46;98185.91;1785018;79;21098;-72
2021/03/04 06:11:04;;;;;;;59.85;29.37;;;;;;;2.78;74.37;98191.77;1785114;80;21166;-72
2021/03/04 06:13:30;;;;;;;32.83;14.47;;;;;;;2.78;74.13;98184.27;1785050;79;21114;-72
2021/03/04 06:15:57;;;;;;;64.67;33.00;;;;;;;2.82;73.82;98178.25;1756627;80;21111;-72
2021/03/04 06:18:23;;;;;;;58.98;29.07;;;;;;;2.78;73.65;98169.55;1785103;79;21241;-72
2021/03/04 06:20:50;;;;;;;63.68;34.18;;;;;;;2.75;73.50;98172.16;1785116;80;21488;-72
2021/03/04 06:23:16;;;;;;;57.10;30.45;;;;;;;2.75;73.63;98172.69;1785143;80;21122;-72
2021/03/04 06:25:44;;;;;;;71.65;31.12;;;;;;;2.82;73.46;98168.06;1785070;80;21102;-72
2021/03/04 06:28:10;;;;;;;61.25;30.88;;;;;;;2.84;73.27;98164.64;1785113;80;21464;-72
2021/03/04 06:30:39;;;;;;;68.67;32.95;;;;;;;2.80;73.50;98160.23;1785138;79;21456;-72
2021/03/04 06:33:09;;;;;;;71.90;32.55;;;;;;;2.89;73.59;98155.39;1785020;80;21511;-72
2021/03/04 06:35:40;;;;;;;51.40;23.92;;;;;;;3.00;73.67;98152.48;1785000;79;21134;-72
2021/03/04 06:38:20;;;;;;;57.35;29.75;;;;;;;3.16;73.74;98156.34;1785204;80;21114;-70
2021/03/04 06:40:48;;;;;;;63.38;31.80;;;;;;;3.26;73.57;98153.95;1756732;80;21087;-71
2021/03/04 06:43:23;;;;;;;61.25;28.30;;;;;;;3.38;73.23;98154.27;1785246;80;21259;-71
2021/03/04 06:45:50;;;;;;;64.97;30.68;;;;;;;3.47;72.69;98149.91;1757050;80;21448;-71
2021/03/04 06:48:18;;;;;;;102.55;51.08;;;;;;;3.52;72.54;98149.52;1785268;80;21126;-71
2021/03/04 06:50:49;;;;;;;58.25;28.17;;;;;;;3.56;72.47;98154.70;1785507;80;21407;-71
2021/03/04 06:53:20;;;;;;;58.05;32.90;;;;;;;3.68;72.29;98158.22;1785304;80;21122;-71
2021/03/04 06:55:51;;;;;;;72.75;37.45;;;;;;;3.75;72.31;98159.95;1785217;80;21145;-71
2021/03/04 06:58:39;;;;;;;54.10;29.42;;;;;;;3.87;72.17;98166.97;1887723;76;22595;-70
2021/03/04 07:01:16;;;;;;;66.30;36.53;;;;;;;3.91;71.68;98178.03;1827464;78;20932;-72
2021/03/04 07:03:51;;;;;;;74.10;33.95;;;;;;;3.92;71.77;98181.81;1827369;77;21986;-71
2021/03/04 07:06:25;;;;;;;49.98;26.50;;;;;;;4.00;71.82;98180.65;1827356;78;21654;-71
2021/03/04 07:08:53;;;;;;;61.42;30.35;;;;;;;4.16;71.47;98184.50;1827412;77;21494;-71
2021/03/04 07:11:22;;;;;;;67.58;31.50;;;;;;;4.33;71.58;98186.75;1827289;78;21035;-71
2021/03/04 07:13:48;;;;;;;61.65;33.63;;;;;;;4.47;71.50;98190.02;1826821;77;21112;-71
2021/03/04 07:16:24;;;;;;;63.48;33.00;;;;;;;4.62;71.42;98186.84;1827347;78;21511;-72
2021/03/04 07:18:54;;;;;;;122.82;67.20;;;;;;;4.72;70.69;98182.48;1827362;77;21106;-71
2021/03/04 07:21:23;;;;;;;123.30;66.15;;;;;;;4.79;70.43;98187.20;1827403;78;20971;-71
2021/03/04 07:23:50;;;;;;;114.37;63.98;;;;;;;4.83;70.31;98176.78;1827429;77;21086;-71
2021/03/04 07:26:16;;;;;;;125.47;65.67;;;;;;;4.85;70.13;98176.55;1827296;78;21158;-71
2021/03/04 07:28:44;;;;;;;79.85;40.63;;;;;;;4.94;69.69;98177.27;1827368;77;22020;-71
2021/03/04 07:31:12;;;;;;;90.92;49.50;;;;;;;5.03;68.64;98169.11;1827207;78;21110;-71
2021/03/04 07:33:41;;;;;;;82.02;47.80;;;;;;;4.93;69.06;98170.80;1827268;77;21193;-71
2021/03/04 07:36:09;;;;;;;146.02;73.10;;;;;;;5.03;68.10;98161.05;1827245;78;21083;-71
2021/03/04 07:38:35;;;;;;;132.70;72.07;;;;;;;5.10;68.66;98159.56;1827638;77;21098;-71
2021/03/04 07:41:12;;;;;;;112.08;58.02;;;;;;;5.29;67.71;98157.48;1827408;78;21246;-72
2021/03/04 07:43:51;;;;;;;108.75;58.68;;;;;;;5.73;68.45;98162.55;1827213;77;21189;-71
2021/03/04 07:46:46;;;;;;;113.50;60.35;;;;;;;6.49;67.92;98153.41;1826606;78;21106;-71
2021/03/04 07:49:12;;;;;;;100.12;54.25;;;;;;;6.76;66.60;98165.08;1826574;77;21416;-71
2021/03/04 07:51:48;;;;;;;98.30;56.73;;;;;;;6.94;67.51;98159.89;1827368;78;21027;-71
2021/03/04 07:54:17;;;;;;;89.10;49.13;;;;;;;7.09;67.65;98161.92;1827322;77;22010;-71
2021/03/04 07:56:43;;;;;;;79.53;41.20;;;;;;;7.20;66.55;98154.23;1825358;77;21613;-71
2021/03/04 07:59:12;;;;;;;74.92;45.38;;;;;;;7.19;65.60;98158.55;1827266;77;21527;-71
2021/03/04 08:01:45;;;;;;;81.53;43.60;;;;;;;7.26;65.08;98155.08;1827394;78;28108;-71
2021/03/04 08:04:22;;;;;;;86.00;46.35;;;;;;;7.30;64.05;98149.48;1825051;77;21102;-71
2021/03/04 08:06:49;;;;;;;78.52;42.75;;;;;;;7.30;64.55;98140.05;1827257;78;21182;-70
2021/03/04 08:09:33;;;;;;;59.05;31.00;;;;;;;7.33;64.92;98136.83;1826699;77;21054;-70
2021/03/04 08:12:13;;;;;;;51.83;28.65;;;;;;;7.51;63.78;98124.84;1826658;78;21070;-72
2021/03/04 08:14:43;;;;;;;41.05;23.38;;;;;;;7.64;62.39;98124.43;1826742;77;20967;-72
2021/03/04 08:17:09;;;;;;;38.70;22.25;;;;;;;7.74;62.63;98122.34;1824399;78;21468;-72
2021/03/04 08:19:35;;;;;;;42.55;22.15;;;;;;;8.01;62.17;98115.50;1826680;77;22034;-72
2021/03/04 08:22:07;;;;;;;42.00;22.60;;;;;;;8.23;60.85;98119.42;1826708;78;21293;-72
2021/03/04 08:24:36;;;;;;;43.40;24.57;;;;;;;8.45;60.78;98116.84;1826781;77;21432;-70
2021/03/04 08:27:04;;;;;;;39.92;23.47;;;;;;;8.76;60.78;98121.03;1826769;78;21022;-70
2021/03/04 08:29:31;;;;;;;38.10;23.25;;;;;;;9.19;57.97;98106.81;1826829;77;21102;-70
2021/03/04 08:31:57;;;;;;;42.25;22.27;;;;;;;9.34;58.19;98112.23;1826740;78;21193;-70
2021/03/04 08:34:31;;;;;;;37.75;21.52;;;;;;;9.35;58.67;98109.80;1821436;78;21046;-70
2021/03/04 08:36:58;;;;;;;42.53;23.52;;;;;;;9.43;58.87;98117.92;1822983;78;21138;-71
2021/03/04 08:39:26;;;;;;;40.85;23.30;;;;;;;9.53;57.13;98120.63;1826743;77;20915;-71
2021/03/04 08:42:07;;;;;;;37.45;24.30;;;;;;;9.78;57.04;98109.80;1794885;78;21589;-71
2021/03/04 08:44:33;;;;;;;39.20;19.40;;;;;;;9.84;56.95;98109.27;1826776;77;21405;-71
2021/03/04 08:47:00;;;;;;;40.43;21.93;;;;;;;9.93;54.80;98105.46;1826669;78;21031;-71
2021/03/04 08:49:26;;;;;;;49.88;21.30;;;;;;;9.89;54.31;98104.64;1826640;77;20908;-71
2021/03/04 08:51:53;;;;;;;38.00;22.20;;;;;;;10.00;53.96;98107.32;1826712;78;21269;-71
2021/03/04 08:54:25;;;;;;;41.77;21.42;;;;;;;10.25;53.62;98101.88;1826669;77;21079;-71
2021/03/04 08:57:05;;;;;;;37.75;22.60;;;;;;;10.83;53.84;98098.13;1826022;78;21342;-71
2021/03/04 08:59:32;;;;;;;46.48;32.95;;;;;;;11.49;52.41;98104.48;1824612;77;21098;-71
2021/03/04 09:01:59;;;;;;;90.07;74.30;;;;;;;11.67;51.35;98098.91;1824675;78;21178;-71
2021/03/04 09:04:29;;;;;;;72.40;54.53;;;;;;;11.93;50.87;98102.23;1824643;77;21031;-71
2021/03/04 09:06:55;;;;;;;46.60;31.62;;;;;;;11.89;51.72;98102.56;1824602;78;21098;-71
2021/03/04 09:09:29;;;;;;;48.10;32.65;;;;;;;11.73;50.35;98090.99;1824680;77;22050;-71
2021/03/04 09:11:57;;;;;;;45.23;28.95;;;;;;;11.62;50.15;98095.42;1824480;78;21074;-71
2021/03/04 09:14:32;;;;;;;86.40;27.82;;;;;;;11.53;50.64;98097.38;1824659;77;21039;-71
2021/03/04 09:16:58;;;;;;;32.95;15.80;;;;;;;11.64;50.10;98094.61;1824132;78;21130;-71
2021/03/04 09:19:35;;;;;;;43.13;24.50;;;;;;;11.72;48.05;98094.00;1824661;77;21019;-71
2021/03/04 09:22:09;;;;;;;42.38;23.92;;;;;;;11.47;48.40;98087.69;1824620;78;22084;-71
2021/03/04 09:24:37;;;;;;;40.30;23.77;;;;;;;11.52;49.05;98082.20;1824609;77;21428;-70
2021/03/04 09:27:10;;;;;;;42.35;24.20;;;;;;;11.55;48.96;98073.51;1824643;78;21150;-71
2021/03/04 09:29:41;;;;;;;65.37;28.47;;;;;;;11.63;48.73;98074.00;1824720;77;21412;-71
2021/03/04 09:32:07;;;;;;;69.15;50.92;;;;;;;11.69;49.26;98072.28;1824558;78;21007;-71
2021/03/04 09:34:37;;;;;;;52.40;34.88;;;;;;;11.78;50.12;98067.86;1824585;77;21152;-70
2021/03/04 09:37:14;;;;;;;43.33;29.92;;;;;;;11.93;50.02;98070.20;1797949;78;21284;-71
2021/03/04 09:39:46;;;;;;;44.95;25.27;;;;;;;12.10;49.77;98069.20;1824662;77;21542;-72
2021/03/04 09:42:15;;;;;;;44.45;27.07;;;;;;;12.24;49.80;98063.91;1823673;78;21435;-71
2021/03/04 09:44:49;;;;;;;61.05;29.12;;;;;;;12.40;49.68;98056.64;1824741;77;21078;-70
2021/03/04 09:47:22;;;;;;;43.75;27.30;;;;;;;12.55;50.28;98050.19;1823673;78;21085;-70
2021/03/04 09:49:49;;;;;;;45.10;27.13;;;;;;;12.62;49.30;98046.56;1824348;77;21153;-70
2021/03/04 09:52:22;;;;;;;43.28;27.10;;;;;;;12.80;50.05;98049.59;1824563;78;21023;-70
2021/03/04 09:54:48;;;;;;;40.28;25.12;;;;;;;12.89;49.48;98043.20;1824615;77;21126;-71
2021/03/04 09:57:21;;;;;;;42.05;25.27;;;;;;;12.90;49.04;98038.05;1824701;78;21149;-70
2021/03/04 09:59:51;;;;;;;41.02;26.10;;;;;;;12.91;46.65;98038.30;1826647;77;21261;-70
2021/03/04 10:02:18;;;;;;;43.20;25.30;;;;;;;13.02;49.15;98032.15;1826534;78;21073;-71
2021/03/04 10:04:56;;;;;;;47.83;29.90;;;;;;;13.06;48.74;98035.88;1826577;77;21026;-70
2021/03/04 10:07:27;;;;;;;65.30;40.43;;;;;;;13.07;47.75;98031.25;1815926;78;21023;-70
2021/03/04 10:09:54;;;;;;;59.00;36.25;;;;;;;12.41;48.80;98037.07;1826694;77;21193;-71
2021/03/04 10:12:21;;;;;;;63.65;37.03;;;;;;;12.45;49.53;98034.56;1826556;78;21180;-70
2021/03/04 10:14:49;;;;;;;65.87;39.48;;;;;;;12.25;50.20;98028.30;1826523;77;21023;-71
2021/03/04 10:17:15;;;;;;;65.40;38.38;;;;;;;11.98;50.84;98030.78;1826619;78;21102;-70
2021/03/04 10:19:42;;;;;;;59.45;38.40;;;;;;;11.88;51.10;98029.52;1826688;77;20975;-71
2021/03/04 10:22:08;;;;;;;59.35;38.20;;;;;;;11.67;51.31;98031.05;1826688;78;21153;-70
2021/03/04 10:24:35;;;;;;;68.52;40.75;;;;;;;11.83;51.61;98034.46;1826585;77;21172;-70
2021/03/04 10:27:02;;;;;;;64.05;40.08;;;;;;;11.65;52.02;98030.54;1826513;78;21510;-70
2021/03/04 10:29:29;;;;;;;68.50;39.10;;;;;;;11.71;52.12;98025.33;1826647;77;21129;-71
2021/03/04 10:31:56;;;;;;;63.48;38.80;;;;;;;11.49;52.18;98023.08;1826636;78;21125;-70
2021/03/04 10:34:23;;;;;;;61.30;36.80;;;;;;;11.25;52.70;98014.06;1826609;77;21071;-70
2021/03/04 10:36:49;;;;;;;64.30;37.88;;;;;;;11.35;52.64;98018.59;1826580;78;21478;-71
2021/03/04 10:39:17;;;;;;;69.40;39.48;;;;;;;11.50;52.77;98015.20;1826464;77;21046;-70
2021/03/04 10:41:43;;;;;;;58.05;35.80;;;;;;;11.47;52.79;98012.26;1826562;78;21074;-70
2021/03/04 10:44:11;;;;;;;67.97;39.88;;;;;;;11.32;52.48;98002.89;1826520;77;21109;-70
2021/03/04 10:46:37;;;;;;;62.73;39.05;;;;;;;11.45;52.95;98008.48;1826674;78;21086;-71
2021/03/04 10:49:04;;;;;;;66.47;39.42;;;;;;;11.59;52.93;98004.53;1826644;77;22141;-70
2021/03/04 10:51:32;;;;;;;61.95;38.15;;;;;;;11.67;52.87;98006.63;1826589;78;20960;-70
2021/03/04 10:53:58;;;;;;;68.33;37.93;;;;;;;11.63;52.67;98010.22;1826490;77;21137;-70
2021/03/04 10:56:24;;;;;;;67.58;41.48;;;;;;;11.74;52.55;97995.44;1826554;78;21553;-70
2021/03/04 10:58:50;;;;;;;62.78;35.45;;;;;;;11.77;52.62;97993.49;1825123;77;21443;-70
2021/03/04 11:01:17;;;;;;;57.30;35.60;;;;;;;11.82;52.35;97988.05;1824519;78;21188;-71
2021/03/04 11:03:43;;;;;;;54.85;34.38;;;;;;;11.89;52.24;97985.00;1824387;77;21073;-71
2021/03/04 11:06:10;;;;;;;62.15;36.73;;;;;;;11.99;52.17;97974.02;1824626;78;21094;-71
2021/03/04 11:08:37;;;;;;;60.90;36.15;;;;;;;12.08;51.34;97977.70;1824453;77;21527;-70
2021/03/04 11:11:03;;;;;;;62.58;36.75;;;;;;;12.19;50.96;97971.04;1824619;78;21579;-70
2021/03/04 11:13:29;;;;;;;59.23;35.63;;;;;;;12.32;51.87;97964.91;1824542;77;22050;-70
2021/03/04 11:15:55;;;;;;;62.83;39.00;;;;;;;12.40;51.92;97964.25;1824419;78;21161;-71
2021/03/04 11:18:21;;;;;;;60.95;36.25;;;;;;;12.14;50.83;97961.06;1824443;77;21105;-70
2021/03/04 11:20:48;;;;;;;58.65;36.25;;;;;;;12.31;51.23;97950.26;1824599;78;21141;-71
2021/03/04 11:23:14;;;;;;;61.10;38.58;;;;;;;12.35;51.30;97943.93;1824474;78;21023;-70
2021/03/04 11:25:41;;;;;;;51.35;33.25;;;;;;;11.99;50.66;97944.95;1824499;77;21190;-71
2021/03/04 11:28:08;;;;;;;61.90;34.73;;;;;;;12.05;51.01;97949.23;1824407;78;21022;-70
2021/03/04 11:30:35;;;;;;;64.50;36.93;;;;;;;12.30;50.90;97939.91;1824497;77;21031;-71